createdAt,value
2023-04-07T00:01:02.271Z,66.72
2023-04-07T00:04:05.947Z,56.72
2023-04-07T00:07:10.491Z,56.67
2023-04-07T00:10:15.524Z,59.03
2023-04-07T00:13:18.749Z,59.88
2023-04-07T00:16:22.010Z,56.15
2023-04-07T00:19:25.300Z,58.70
2023-04-07T00:22:28.480Z,56.58
2023-04-07T00:25:33.399Z,62.42
2023-04-07T00:28:37.020Z,56.60
2023-04-07T00:31:40.476Z,66.57
2023-04-07T00:34:44.092Z,63.90
2023-04-07T00:37:47.360Z,70.40
2023-04-07T00:40:52.157Z,61.90
2023-04-07T00:43:55.575Z,57.60
2023-04-07T00:46:59.072Z,71.80
2023-04-07T00:50:04.554Z,58.75
2023-04-07T00:53:09.023Z,69.22
2023-04-07T00:56:13.812Z,61.78
2023-04-07T00:59:17.315Z,72.85
2023-04-07T01:02:28.452Z,66.35
2023-04-07T01:05:40.432Z,64.30
2023-04-07T01:08:52.842Z,60.30
2023-04-07T01:12:08.895Z,63.58
2023-04-07T01:15:14.017Z,70.25
2023-04-07T01:18:25.902Z,64.70
2023-04-07T01:21:30.690Z,63.38
2023-04-07T01:25:13.966Z,68.18
2023-04-07T01:28:45.868Z,65.43
2023-04-07T01:31:51.702Z,66.57
2023-04-07T01:34:57.001Z,69.07
2023-04-07T01:38:01.922Z,68.97
2023-04-07T01:41:05.664Z,60.20
2023-04-07T01:44:10.976Z,60.40
2023-04-07T01:47:17.316Z,60.65
2023-04-07T01:50:22.278Z,66.82
2023-04-07T01:53:26.987Z,63.90
2023-04-07T01:56:30.271Z,66.80
2023-04-07T01:59:34.895Z,65.53
2023-04-07T02:02:46.621Z,68.40
2023-04-07T02:05:55.659Z,80.93
2023-04-07T02:09:14.169Z,66.47
2023-04-07T02:12:18.179Z,72.38
2023-04-07T02:15:33.160Z,73.03
2023-04-07T02:18:38.960Z,61.88
2023-04-07T02:21:43.345Z,65.25
2023-04-07T02:24:46.794Z,60.90
2023-04-07T02:27:49.963Z,58.83
2023-04-07T02:30:54.624Z,60.90
2023-04-07T02:33:59.543Z,67.47
2023-04-07T02:37:02.768Z,67.15
2023-04-07T02:40:07.278Z,58.00
2023-04-07T02:43:10.630Z,61.83
2023-04-07T02:46:15.444Z,60.78
2023-04-07T02:49:21.004Z,65.20
2023-04-07T02:52:24.186Z,64.82
2023-04-07T02:55:27.487Z,56.88
2023-04-07T02:58:30.887Z,58.55
2023-04-07T03:01:35.894Z,62.22
2023-04-07T03:04:40.537Z,62.20
2023-04-07T03:07:43.822Z,60.22
2023-04-07T03:10:47.566Z,59.00
2023-04-07T03:13:51.874Z,71.15
2023-04-07T03:16:56.446Z,55.60
2023-04-07T03:20:02.191Z,56.30
2023-04-07T03:23:06.117Z,62.22
2023-04-07T03:26:09.603Z,60.35
2023-04-07T03:29:14.868Z,60.35
2023-04-07T03:32:19.392Z,58.78
2023-04-07T03:35:25.680Z,51.33
2023-04-07T03:38:29.084Z,51.03
2023-04-07T03:41:36.702Z,48.85
2023-04-07T03:44:41.572Z,50.28
2023-04-07T03:47:44.798Z,52.00
2023-04-07T03:50:50.541Z,48.17
2023-04-07T03:53:55.702Z,49.00
2023-04-07T03:57:07.817Z,47.92
2023-04-07T04:00:17.702Z,37.25
2023-04-07T04:03:29.069Z,49.47
2023-04-07T04:06:50.395Z,45.08
2023-04-07T04:10:12.645Z,60.38
2023-04-07T04:13:19.863Z,43.08
2023-04-07T04:16:24.052Z,47.53
2023-04-07T04:19:29.719Z,42.33
2023-04-07T04:22:36.860Z,43.00
2023-04-07T04:25:40.957Z,39.20
2023-04-07T04:28:47.370Z,36.30
2023-04-07T04:31:52.453Z,38.67
2023-04-07T04:34:57.256Z,39.90
2023-04-07T04:38:03.121Z,42.67
2023-04-07T04:41:07.445Z,44.95
2023-04-07T04:44:12.325Z,45.22
2023-04-07T04:47:18.895Z,47.05
2023-04-07T04:50:23.061Z,51.97
2023-04-07T04:53:29.145Z,51.08
2023-04-07T04:56:35.767Z,51.67
2023-04-07T04:59:40.813Z,54.75
2023-04-07T05:02:44.283Z,51.60
2023-04-07T05:05:49.434Z,52.00
2023-04-07T05:08:57.453Z,50.75
2023-04-07T05:12:05.864Z,44.40
2023-04-07T05:15:15.271Z,50.00
2023-04-07T05:18:21.584Z,51.40
2023-04-07T05:21:25.182Z,51.17
2023-04-07T05:24:31.665Z,51.05
2023-04-07T05:27:37.209Z,47.88
2023-04-07T05:30:47.063Z,70.43
2023-04-07T05:33:50.598Z,48.33
2023-04-07T05:36:54.251Z,47.97
2023-04-07T05:39:59.836Z,48.30
2023-04-07T05:43:03.585Z,48.85
2023-04-07T05:46:08.978Z,50.33
2023-04-07T05:49:20.880Z,50.20
2023-04-07T05:52:31.492Z,49.55
2023-04-07T05:55:46.022Z,51.17
2023-04-07T05:59:11.069Z,49.42
2023-04-07T06:02:16.207Z,50.20
2023-04-07T06:05:22.902Z,50.33
2023-04-07T06:08:29.494Z,49.22
2023-04-07T06:11:34.522Z,49.78
2023-04-07T06:14:37.972Z,50.67
2023-04-07T06:17:42.215Z,49.03
2023-04-07T06:20:45.650Z,48.65
2023-04-07T06:23:50.760Z,48.67
2023-04-07T06:26:56.944Z,47.70
2023-04-07T06:30:00.632Z,48.58
2023-04-07T06:33:04.092Z,48.72
2023-04-07T06:36:08.348Z,48.78
2023-04-07T06:39:12.835Z,48.35
2023-04-07T06:42:17.525Z,50.72
2023-04-07T06:45:28.415Z,49.65
2023-04-07T06:48:31.821Z,50.17
2023-04-07T06:51:35.143Z,50.67
2023-04-07T06:54:38.657Z,49.30
2023-04-07T06:57:43.493Z,45.75
2023-04-07T07:00:46.835Z,47.47
2023-04-07T07:03:50.848Z,48.78
2023-04-07T07:06:56.114Z,47.22
2023-04-07T07:09:59.501Z,46.47
2023-04-07T07:13:04.720Z,44.78
2023-04-07T07:16:08.613Z,41.83
2023-04-07T07:19:12.059Z,41.00
2023-04-07T07:22:15.768Z,40.63
2023-04-07T07:25:19.244Z,39.88
2023-04-07T07:28:23.979Z,38.33
2023-04-07T07:31:27.442Z,37.40
2023-04-07T07:34:31.325Z,36.58
2023-04-07T07:37:34.807Z,39.15
2023-04-07T07:40:38.323Z,43.22
2023-04-07T07:43:43.546Z,40.00
2023-04-07T07:46:47.765Z,36.17
2023-04-07T07:49:52.236Z,30.45
2023-04-07T07:52:57.237Z,28.75
2023-04-07T07:56:01.426Z,33.45
2023-04-07T07:59:07.433Z,25.90
2023-04-07T08:02:11.568Z,20.23
2023-04-07T08:05:15.345Z,17.77
2023-04-07T08:08:19.222Z,17.55
2023-04-07T08:11:23.196Z,15.20
2023-04-07T08:14:28.162Z,17.27
2023-04-07T08:17:31.639Z,16.05
2023-04-07T08:20:36.159Z,15.70
2023-04-07T08:23:39.401Z,15.48
2023-04-07T08:26:42.725Z,15.80
2023-04-07T08:29:47.530Z,14.88
2023-04-07T08:32:51.979Z,16.95
2023-04-07T08:35:55.468Z,18.23
2023-04-07T08:38:59.006Z,19.92
2023-04-07T08:42:02.763Z,30.80
2023-04-07T08:45:09.851Z,19.20
2023-04-07T08:48:57.933Z,15.75
2023-04-07T08:52:05.093Z,14.98
2023-04-07T08:55:10.370Z,13.32
2023-04-07T08:58:15.596Z,11.40
2023-04-07T09:01:21.685Z,10.90
2023-04-07T09:04:25.540Z,12.18
2023-04-07T09:07:28.916Z,10.95
2023-04-07T09:10:32.330Z,9.43
2023-04-07T09:13:36.018Z,9.15
2023-04-07T09:16:41.134Z,8.13
2023-04-07T09:19:44.457Z,8.07
2023-04-07T09:22:47.985Z,7.93
2023-04-07T09:25:51.562Z,7.45
2023-04-07T09:28:56.670Z,7.90
2023-04-07T09:32:01.486Z,8.07
2023-04-07T09:35:05.308Z,7.82
2023-04-07T09:38:10.034Z,8.32
2023-04-07T09:41:14.880Z,7.85
2023-04-07T09:44:18.288Z,8.77
2023-04-07T09:47:29.494Z,9.02
2023-04-07T09:50:35.300Z,8.35
2023-04-07T09:53:47.677Z,7.80
2023-04-07T09:56:51.863Z,7.78
2023-04-07T09:59:56.441Z,7.45
2023-04-07T10:03:03.846Z,8.65
2023-04-07T10:06:08.461Z,8.57
2023-04-07T10:09:12.668Z,9.95
2023-04-07T10:12:16.853Z,9.90
2023-04-07T10:15:20.319Z,10.48
2023-04-07T10:18:31.707Z,8.68
2023-04-07T10:21:39.064Z,9.82
2023-04-07T10:24:53.015Z,8.35
2023-04-07T10:28:01.214Z,8.63
2023-04-07T10:31:05.248Z,8.35
2023-04-07T10:34:09.963Z,9.93
2023-04-07T10:37:17.702Z,9.63
2023-04-07T10:40:31.561Z,9.70
2023-04-07T10:43:39.945Z,12.18
2023-04-07T10:47:04.289Z,12.95
2023-04-07T10:50:20.182Z,14.07
2023-04-07T10:53:24.195Z,13.05
2023-04-07T10:56:27.924Z,10.68
2023-04-07T10:59:31.290Z,9.95
2023-04-07T11:02:35.798Z,9.70
2023-04-07T11:05:40.993Z,9.50
2023-04-07T11:08:48.214Z,9.10
2023-04-07T11:11:52.511Z,8.77
2023-04-07T11:14:56.701Z,10.23
2023-04-07T11:18:18.248Z,8.52
2023-04-07T11:21:23.299Z,7.80
2023-04-07T11:24:37.772Z,7.57
2023-04-07T11:27:41.242Z,5.88
2023-04-07T11:30:51.652Z,6.63
2023-04-07T11:33:56.299Z,7.07
2023-04-07T11:37:20.606Z,6.70
2023-04-07T11:40:34.731Z,5.85
2023-04-07T11:43:38.134Z,5.68
2023-04-07T11:46:55.454Z,6.53
2023-04-07T11:49:58.876Z,6.47
2023-04-07T11:53:03.596Z,9.48
2023-04-07T11:56:09.771Z,8.55
2023-04-07T11:59:22.852Z,8.85
2023-04-07T12:02:33.930Z,7.50
2023-04-07T12:05:44.341Z,4.80
2023-04-07T12:08:49.064Z,5.13
2023-04-07T12:11:52.565Z,5.82
2023-04-07T12:14:56.639Z,6.80
2023-04-07T12:18:00.525Z,6.60
2023-04-07T12:21:03.817Z,6.45
2023-04-07T12:24:08.550Z,7.63
2023-04-07T12:27:12.300Z,7.85
2023-04-07T12:30:15.733Z,8.23
2023-04-07T12:33:19.095Z,7.75
2023-04-07T12:36:22.872Z,7.88
2023-04-07T12:39:27.657Z,7.55
2023-04-07T12:42:31.024Z,8.27
2023-04-07T12:45:34.404Z,8.38
2023-04-07T12:48:37.895Z,7.30
2023-04-07T12:51:42.101Z,7.03
2023-04-07T12:54:48.930Z,5.80
2023-04-07T12:57:52.416Z,9.98
2023-04-07T13:00:56.812Z,6.97
2023-04-07T13:04:01.089Z,6.82
2023-04-07T13:07:04.432Z,7.75
2023-04-07T13:10:10.864Z,7.75
2023-04-07T13:13:14.143Z,7.35
2023-04-07T13:16:17.748Z,6.35
2023-04-07T13:19:21.183Z,6.57
2023-04-07T13:22:25.319Z,7.05
2023-04-07T13:25:30.495Z,7.93
2023-04-07T13:28:33.952Z,9.88
2023-04-07T13:31:37.333Z,9.65
2023-04-07T13:34:41.009Z,9.95
2023-04-07T13:37:44.446Z,8.00
2023-04-07T13:40:49.671Z,8.50
2023-04-07T13:43:53.028Z,8.10
2023-04-07T13:46:57.520Z,7.95
2023-04-07T13:50:01.205Z,7.53
2023-04-07T13:53:04.758Z,7.20
2023-04-07T13:56:10.313Z,7.20
2023-04-07T13:59:13.636Z,7.35
2023-04-07T14:02:17.249Z,6.88
2023-04-07T14:05:20.621Z,6.80
2023-04-07T14:08:24.071Z,6.68
2023-04-07T14:11:31.636Z,6.07
2023-04-07T14:14:37.460Z,6.65
2023-04-07T14:17:43.226Z,8.52
2023-04-07T14:20:46.992Z,8.60
2023-04-07T14:23:50.660Z,8.65
2023-04-07T14:26:55.893Z,8.07
2023-04-07T14:29:59.715Z,7.50
2023-04-07T14:33:05.070Z,7.53
2023-04-07T14:36:08.664Z,7.18
2023-04-07T14:39:12.502Z,8.60
2023-04-07T14:42:19.384Z,11.82
2023-04-07T14:45:25.398Z,13.07
2023-04-07T14:48:29.112Z,12.82
2023-04-07T14:51:32.376Z,13.90
2023-04-07T14:54:35.723Z,15.77
2023-04-07T14:57:40.345Z,13.98
2023-04-07T15:00:45.869Z,14.32
2023-04-07T15:03:52.811Z,13.02
2023-04-07T15:06:56.610Z,13.93
2023-04-07T15:10:00.896Z,13.55
2023-04-07T15:13:05.530Z,13.88
2023-04-07T15:16:10.582Z,14.00
2023-04-07T15:19:13.851Z,13.90
2023-04-07T15:22:17.202Z,13.40
2023-04-07T15:25:22.634Z,15.43
2023-04-07T15:28:27.382Z,14.40
2023-04-07T15:31:30.791Z,14.70
2023-04-07T15:34:34.253Z,17.75
2023-04-07T15:37:38.553Z,152.02
2023-04-07T15:40:42.772Z,125.75
2023-04-07T15:43:47.904Z,153.18
2023-04-07T15:46:51.406Z,52.05
2023-04-07T15:49:54.824Z,35.58
2023-04-07T15:52:58.227Z,97.43
2023-04-07T15:56:01.474Z,125.70
2023-04-07T15:59:06.239Z,40.60
2023-04-07T16:02:10.399Z,188.05
2023-04-07T16:05:15.837Z,82.40
2023-04-07T16:08:19.219Z,36.35
2023-04-07T16:11:22.671Z,71.50
2023-04-07T16:14:29.239Z,98.90
2023-04-07T16:17:32.914Z,58.50
2023-04-07T16:20:36.313Z,38.92
2023-04-07T16:23:39.655Z,34.80
2023-04-07T16:26:43.225Z,90.82
2023-04-07T16:29:48.543Z,159.40
2023-04-07T16:32:52.313Z,47.25
2023-04-07T16:35:55.696Z,23.20
2023-04-07T16:38:58.972Z,34.22
2023-04-07T16:42:02.665Z,63.65
2023-04-07T16:45:08.699Z,42.65
2023-04-07T16:48:12.192Z,35.53
2023-04-07T16:51:18.254Z,143.48
2023-04-07T16:54:21.817Z,450.67
2023-04-07T16:57:25.150Z,239.50
2023-04-07T17:00:29.835Z,46.92
2023-04-07T17:03:33.933Z,50.45
2023-04-07T17:06:37.237Z,37.38
2023-04-07T17:09:40.575Z,22.73
2023-04-07T17:12:44.294Z,30.25
2023-04-07T17:15:49.072Z,42.00
2023-04-07T17:18:52.806Z,265.45
2023-04-07T17:21:56.223Z,255.07
2023-04-07T17:24:59.596Z,101.75
2023-04-07T17:28:02.829Z,155.50
2023-04-07T17:31:07.753Z,26.75
2023-04-07T17:34:11.735Z,48.25
2023-04-07T17:37:15.058Z,29.77
2023-04-07T17:40:18.351Z,61.08
2023-04-07T17:43:21.863Z,54.88
2023-04-07T17:46:27.331Z,202.35
2023-04-07T17:49:30.784Z,76.82
2023-04-07T17:52:34.139Z,30.58
2023-04-07T17:55:37.496Z,29.13
2023-04-07T17:58:41.309Z,40.40
2023-04-07T18:01:46.096Z,32.72
2023-04-07T18:04:49.485Z,35.15
2023-04-07T18:07:54.895Z,42.28
2023-04-07T18:10:58.177Z,29.70
2023-04-07T18:14:02.082Z,22.75
2023-04-07T18:17:06.805Z,18.95
2023-04-07T18:20:11.571Z,25.65
2023-04-07T18:23:14.818Z,25.77
2023-04-07T18:26:18.031Z,26.70
2023-04-07T18:29:21.462Z,25.08
2023-04-07T18:32:26.277Z,28.42
2023-04-07T18:35:29.647Z,30.77
2023-04-07T18:38:32.957Z,80.93
2023-04-07T18:41:36.652Z,37.00
2023-04-07T18:44:40.164Z,17.73
2023-04-07T18:47:44.866Z,19.90
2023-04-07T18:50:52.308Z,20.27
2023-04-07T18:53:55.691Z,19.17
2023-04-07T18:56:58.976Z,16.58
2023-04-07T19:00:02.592Z,17.33
2023-04-07T19:03:07.557Z,17.98
2023-04-07T19:06:14.610Z,19.42
2023-04-07T19:09:17.858Z,18.95
2023-04-07T19:12:21.208Z,16.85
2023-04-07T19:15:24.504Z,19.50
2023-04-07T19:18:29.304Z,17.38
2023-04-07T19:21:33.004Z,20.35
2023-04-07T19:24:36.222Z,20.45
2023-04-07T19:27:39.543Z,22.38
2023-04-07T19:30:43.101Z,20.05
2023-04-07T19:33:48.931Z,19.75
2023-04-07T19:36:52.298Z,19.15
2023-04-07T19:40:02.777Z,18.75
2023-04-07T19:43:07.293Z,16.08
2023-04-07T19:46:10.812Z,16.17
2023-04-07T19:49:15.984Z,15.93
2023-04-07T19:52:19.232Z,15.88
2023-04-07T19:55:22.517Z,15.00
2023-04-07T19:58:26.426Z,16.60
2023-04-07T20:01:29.848Z,16.98
2023-04-07T20:04:34.804Z,20.77
2023-04-07T20:07:38.286Z,17.23
2023-04-07T20:10:41.766Z,16.65
2023-04-07T20:13:45.017Z,17.40
2023-04-07T20:16:48.387Z,15.55
2023-04-07T20:19:54.984Z,15.63
2023-04-07T20:22:58.157Z,22.83
2023-04-07T20:26:02.242Z,16.15
2023-04-07T20:29:05.898Z,14.70
2023-04-07T20:32:09.377Z,15.82
2023-04-07T20:35:14.335Z,14.82
2023-04-07T20:38:18.797Z,14.95
2023-04-07T20:41:23.663Z,16.17
2023-04-07T20:44:29.291Z,16.63
2023-04-07T20:47:35.827Z,17.75
2023-04-07T20:50:40.476Z,18.63
2023-04-07T20:53:43.697Z,18.75
2023-04-07T20:56:47.474Z,24.67
2023-04-07T20:59:50.739Z,95.35
2023-04-07T21:02:54.149Z,45.95
2023-04-07T21:05:59.003Z,30.80
2023-04-07T21:09:02.694Z,18.63
2023-04-07T21:12:05.900Z,18.10
2023-04-07T21:15:09.672Z,19.90
2023-04-07T21:18:13.000Z,18.88
2023-04-07T21:21:18.013Z,17.98
2023-04-07T21:24:22.806Z,16.98
2023-04-07T21:27:26.130Z,17.25
2023-04-07T21:30:29.624Z,18.05
2023-04-07T21:33:32.992Z,17.40
2023-04-07T21:36:37.692Z,17.83
2023-04-07T21:39:41.135Z,16.65
2023-04-07T21:42:44.402Z,17.52
2023-04-07T21:45:47.980Z,16.77
2023-04-07T21:48:51.302Z,16.67
2023-04-07T21:51:59.866Z,16.55
2023-04-07T21:55:04.018Z,17.50
2023-04-07T21:58:07.549Z,17.85
2023-04-07T22:01:10.978Z,17.65
2023-04-07T22:04:14.594Z,18.17
2023-04-07T22:07:19.357Z,18.60
2023-04-07T22:10:22.695Z,19.42
2023-04-07T22:13:25.992Z,19.80
2023-04-07T22:16:29.261Z,20.27
2023-04-07T22:19:32.480Z,20.90
2023-04-07T22:22:37.129Z,19.83
2023-04-07T22:25:40.407Z,20.23
2023-04-07T22:28:43.732Z,21.23
2023-04-07T22:31:46.997Z,20.83
2023-04-07T22:34:50.375Z,25.92
2023-04-07T22:37:55.619Z,21.65
2023-04-07T22:40:58.862Z,23.80
2023-04-07T22:44:02.175Z,21.52
2023-04-07T22:47:05.516Z,23.45
2023-04-07T22:50:09.433Z,22.90
2023-04-07T22:53:14.013Z,22.45
2023-04-07T22:56:17.250Z,22.65
2023-04-07T22:59:20.573Z,25.73
2023-04-07T23:02:24.267Z,24.92
2023-04-07T23:05:27.736Z,23.92
2023-04-07T23:08:32.443Z,24.20
2023-04-07T23:11:36.579Z,26.67
2023-04-07T23:14:39.752Z,27.73
2023-04-07T23:17:42.988Z,28.85
2023-04-07T23:20:52.158Z,31.33
2023-04-07T23:23:56.914Z,28.27
2023-04-07T23:27:00.816Z,32.75
2023-04-07T23:30:04.370Z,41.08
2023-04-07T23:33:07.966Z,39.45
2023-04-07T23:36:11.255Z,41.92
2023-04-07T23:39:15.887Z,49.50
2023-04-07T23:42:19.130Z,54.90
2023-04-07T23:45:22.988Z,47.25
2023-04-07T23:48:26.492Z,49.85
2023-04-07T23:51:30.384Z,49.30
2023-04-07T23:54:36.052Z,48.10
2023-04-07T23:57:39.260Z,45.38
